Time;durP1;ratioP1;P1;durP2;ratioP2;P2;SDS_P1;SDS_P2;PMS_P1;PMS_P2;Temp;Humidity;BMP_temperature;BMP_pressure;BME280_temperature;BME280_humidity;BME280_pressure;Samples;Min_cycle;Max_cycle;Signal;HPM_P1;HPM_P2
2021/03/30 00:01:24;;;;;;;17.50;12.75;;;;;;;7.33;88.60;97504.41;5099799;28;20077;-89
2021/03/30 00:03:49;;;;;;;16.85;12.13;;;;;;;7.03;88.79;97464.69;5098829;28;20020;-89
2021/03/30 00:06:14;;;;;;;17.17;12.70;;;;;;;7.07;88.61;97468.09;5098869;28;20031;-89
2021/03/30 00:08:40;;;;;;;15.60;11.73;;;;;;;7.44;88.45;97525.09;5099692;28;20024;-88
2021/03/30 00:11:07;;;;;;;22.38;16.35;;;;;;;7.07;88.80;97476.19;5097631;28;20508;-89
2021/03/30 00:13:32;;;;;;;21.38;16.95;;;;;;;7.25;88.85;97502.22;5098868;28;20035;-89
2021/03/30 00:15:58;;;;;;;27.92;17.88;;;;;;;7.37;88.96;97517.88;5098487;28;20347;-88
2021/03/30 00:18:24;;;;;;;22.08;17.80;;;;;;;7.40;88.52;97524.38;5098696;28;20426;-89
2021/03/30 00:20:49;;;;;;;24.77;18.65;;;;;;;6.97;88.53;97452.03;5098451;28;20478;-89
2021/03/30 00:23:14;;;;;;;21.73;17.92;;;;;;;7.17;88.34;97479.94;5098460;28;20111;-89
2021/03/30 00:25:40;;;;;;;24.27;17.27;;;;;;;7.04;87.52;97458.13;5098332;28;20020;-88
2021/03/30 00:28:05;;;;;;;21.30;18.33;;;;;;;7.43;87.61;97515.47;5098400;28;20017;-88
2021/03/30 00:30:31;;;;;;;27.35;19.35;;;;;;;7.27;88.93;97494.47;5098287;28;20039;-88
2021/03/30 00:32:56;;;;;;;25.20;18.67;;;;;;;7.08;89.49;97468.84;5098231;28;20396;-88
2021/03/30 00:35:22;;;;;;;23.85;17.90;;;;;;;7.01;88.77;97460.88;5099063;28;20031;-89
2021/03/30 00:37:48;;;;;;;25.27;18.27;;;;;;;7.13;88.69;97479.22;5098184;28;20027;-89
2021/03/30 00:40:14;;;;;;;21.73;16.45;;;;;;;6.92;88.26;97439.75;5098414;28;20031;-89
2021/03/30 00:42:40;;;;;;;19.90;15.90;;;;;;;7.28;88.88;97491.34;5098020;28;20111;-89
2021/03/30 00:45:07;;;;;;;21.88;15.90;;;;;;;7.41;88.31;97496.22;5098013;28;20016;-89
2021/03/30 00:47:34;;;;;;;19.27;14.68;;;;;;;6.95;88.79;97438.19;5097956;28;20035;-88
2021/03/30 00:49:59;;;;;;;22.08;15.15;;;;;;;7.31;89.13;97497.88;5097935;28;20020;-90
2021/03/30 00:52:26;;;;;;;14.70;10.40;;;;;;;7.27;89.67;97495.22;5097260;28;20110;-89
2021/03/30 00:54:52;;;;;;;14.77;9.70;;;;;;;7.11;89.03;97464.59;5097826;28;20036;-88
2021/03/30 00:57:18;;;;;;;11.73;8.82;;;;;;;7.39;89.04;97496.59;5097756;28;20020;-89
2021/03/30 00:59:44;;;;;;;14.27;9.55;;;;;;;7.01;89.01;97440.00;5097964;28;20100;-89
2021/03/30 01:02:10;;;;;;;17.70;12.25;;;;;;;7.05;88.75;97448.06;5097390;28;20384;-89
2021/03/30 01:05:12;;;;;;;20.38;15.15;;;;;;;7.35;89.12;97490.50;5097704;28;20043;-89
2021/03/30 01:08:00;;;;;;;22.33;15.07;;;;;;;6.98;87.82;97435.44;5097231;28;20085;-88
2021/03/30 01:10:46;;;;;;;20.92;15.60;;;;;;;7.13;88.37;97446.78;5098775;28;20070;-89
2021/03/30 01:13:33;;;;;;;21.58;15.50;;;;;;;7.38;87.62;97488.91;5098573;28;20036;-89
2021/03/30 01:16:15;;;;;;;29.55;17.63;;;;;;;7.08;88.84;97466.94;5098350;28;20103;-89
2021/03/30 01:18:55;;;;;;;24.52;15.75;;;;;;;6.97;88.47;97435.81;5098390;28;20031;-88
2021/03/30 01:22:03;;;;;;;21.92;15.52;;;;;;;7.12;88.59;97466.13;5097419;28;20019;-88
2021/03/30 01:27:50;;;;;;;21.50;17.00;;;;;;;7.26;88.58;97482.91;5098329;28;20058;-89
2021/03/30 01:30:17;;;;;;;22.08;14.68;;;;;;;7.27;89.45;97486.38;5098154;28;20028;-89
2021/03/30 01:32:47;;;;;;;19.60;14.75;;;;;;;7.03;89.08;97448.50;5097068;28;20028;-88
2021/03/30 01:35:16;;;;;;;16.13;13.18;;;;;;;7.05;89.77;97450.78;5097004;28;20214;-88
2021/03/30 01:37:46;;;;;;;17.33;12.25;;;;;;;7.35;88.89;97485.09;5097042;28;20046;-88
2021/03/30 01:40:15;;;;;;;15.75;11.45;;;;;;;7.02;89.53;97446.94;5097763;28;20035;-89
2021/03/30 01:42:41;;;;;;;16.90;12.00;;;;;;;6.71;90.09;97392.22;5097848;28;20028;-89
2021/03/30 01:45:09;;;;;;;18.67;12.32;;;;;;;6.97;89.70;97431.19;5097924;28;20124;-88
2021/03/30 01:47:37;;;;;;;16.05;12.07;;;;;;;6.65;89.17;97371.47;5096826;28;20024;-88
2021/03/30 01:50:05;;;;;;;19.05;11.77;;;;;;;7.23;89.61;97464.03;5097850;28;20028;-88
2021/03/30 01:52:33;;;;;;;19.30;14.30;;;;;;;7.07;90.18;97451.13;5096578;28;20082;-88
2021/03/30 01:54:59;;;;;;;19.48;14.38;;;;;;;6.77;88.75;97406.78;5113645;28;20035;-89
2021/03/30 01:57:28;;;;;;;24.67;17.77;;;;;;;7.00;90.23;97430.38;5096656;28;20062;-89
2021/03/30 01:59:54;;;;;;;29.08;20.17;;;;;;;7.19;89.22;97464.09;5096391;28;20115;-89
2021/03/30 02:02:21;;;;;;;25.98;19.80;;;;;;;6.82;88.93;97398.25;5077150;28;20028;-88
2021/03/30 02:04:48;;;;;;;26.27;18.92;;;;;;;7.30;89.10;97472.81;5076443;28;20074;-89
2021/03/30 02:07:16;;;;;;;23.75;16.33;;;;;;;6.89;89.12;97407.41;5076361;28;20029;-88
2021/03/30 02:09:45;;;;;;;22.77;16.50;;;;;;;6.88;88.48;97405.88;5076333;28;20043;-88
2021/03/30 02:12:14;;;;;;;25.17;17.60;;;;;;;7.07;87.93;97426.81;5076312;28;20020;-89
2021/03/30 02:14:40;;;;;;;22.88;16.90;;;;;;;7.32;88.62;97464.28;5076049;28;20039;-89
2021/03/30 02:17:31;;;;;;;21.85;16.60;;;;;;;7.28;88.70;97460.84;5076223;28;20024;-88
2021/03/30 02:20:20;;;;;;;22.67;16.85;;;;;;;7.00;88.78;97424.97;5076305;28;20048;-89
2021/03/30 02:23:03;;;;;;;21.10;16.00;;;;;;;6.98;88.62;97421.19;5077204;28;20029;-89
2021/03/30 02:25:30;;;;;;;23.73;15.80;;;;;;;7.20;89.33;97446.69;5087290;28;20028;-88
2021/03/30 02:28:05;;;;;;;15.23;10.38;;;;;;;7.00;89.39;97416.13;5096345;28;20032;-89
2021/03/30 02:30:34;;;;;;;16.48;11.00;;;;;;;6.79;89.60;97392.88;5096388;28;20031;-89
2021/03/30 02:33:00;;;;;;;15.48;11.13;;;;;;;7.14;88.96;97429.44;5096333;28;20028;-89
2021/03/30 02:35:25;;;;;;;13.63;10.45;;;;;;;7.04;89.71;97406.78;5099271;28;20373;-90
2021/03/30 02:37:52;;;;;;;14.65;10.77;;;;;;;6.81;89.13;97391.28;5100599;28;20028;-89
2021/03/30 02:40:21;;;;;;;13.52;10.32;;;;;;;7.31;89.47;97455.41;5100679;28;20031;-89
2021/03/30 02:42:48;;;;;;;19.90;11.93;;;;;;;7.03;89.85;97421.47;5101640;28;20034;-88
2021/03/30 02:45:19;;;;;;;19.20;14.00;;;;;;;6.85;89.38;97390.47;5100445;28;20020;-88
2021/03/30 02:47:45;;;;;;;20.35;15.07;;;;;;;7.10;89.72;97431.41;5100348;28;20023;-88
2021/03/30 02:50:12;;;;;;;20.42;15.02;;;;;;;6.98;89.08;97413.84;5100343;28;20024;-87
2021/03/30 02:52:37;;;;;;;20.77;16.65;;;;;;;6.86;89.90;97408.97;5099871;28;20147;-88
2021/03/30 02:55:05;;;;;;;20.58;16.55;;;;;;;6.91;89.67;97410.44;5100314;28;20107;-88
2021/03/30 02:57:31;;;;;;;18.92;14.77;;;;;;;6.84;88.96;97389.72;5102085;28;20088;-88
2021/03/30 02:59:57;;;;;;;17.13;13.50;;;;;;;6.82;88.74;97383.97;5101014;28;20107;-88
2021/03/30 03:02:24;;;;;;;15.68;12.05;;;;;;;6.75;89.85;97378.66;5100733;28;20096;-88
2021/03/30 03:04:50;;;;;;;18.52;13.02;;;;;;;6.84;89.36;97392.41;5116871;28;20020;-88
2021/03/30 03:07:16;;;;;;;21.80;16.20;;;;;;;6.99;89.34;97411.91;5100194;28;20165;-88
2021/03/30 03:09:43;;;;;;;23.33;17.67;;;;;;;6.97;89.16;97403.41;5101108;28;20543;-89
2021/03/30 03:12:11;;;;;;;34.42;24.70;;;;;;;7.00;88.61;97414.19;5099921;28;20110;-89
2021/03/30 03:14:39;;;;;;;39.53;30.25;;;;;;;7.22;88.62;97459.78;5099698;28;20032;-89
2021/03/30 03:17:05;;;;;;;35.90;27.65;;;;;;;6.70;88.39;97371.00;5099756;28;20024;-88
2021/03/30 03:19:32;;;;;;;38.65;28.85;;;;;;;6.79;88.46;97396.34;5099585;28;20027;-89
2021/03/30 03:21:58;;;;;;;38.25;29.85;;;;;;;7.19;89.25;97447.88;5100036;28;20044;-88
2021/03/30 03:24:24;;;;;;;40.15;29.77;;;;;;;6.65;89.09;97372.22;5099868;28;20099;-88
2021/03/30 03:26:50;;;;;;;36.25;29.20;;;;;;;7.10;88.68;97439.50;5099625;28;20027;-88
2021/03/30 03:29:18;;;;;;;38.17;28.95;;;;;;;6.85;88.42;97393.94;5099447;28;20481;-88
2021/03/30 03:31:44;;;;;;;37.53;29.88;;;;;;;6.66;89.44;97370.28;5099472;28;20062;-88
2021/03/30 03:34:14;;;;;;;38.63;31.70;;;;;;;6.69;89.32;97391.84;5099134;28;20024;-88
2021/03/30 03:36:42;;;;;;;46.08;38.05;;;;;;;7.10;89.60;97450.31;5099327;28;20120;-88
2021/03/30 03:39:10;;;;;;;45.03;37.50;;;;;;;7.16;89.85;97454.09;5099280;28;20024;-89
2021/03/30 03:41:36;;;;;;;36.80;26.58;;;;;;;6.52;89.39;97363.94;5099161;28;20391;-88
2021/03/30 03:44:03;;;;;;;35.45;27.33;;;;;;;7.18;89.36;97459.84;5099213;28;20056;-88
2021/03/30 03:46:28;;;;;;;30.25;24.05;;;;;;;6.98;90.01;97440.84;5099730;28;20020;-89
2021/03/30 03:48:54;;;;;;;32.30;25.75;;;;;;;6.75;89.15;97398.31;5099253;28;20078;-88
2021/03/30 03:51:20;;;;;;;35.60;26.65;;;;;;;7.12;89.39;97447.97;5099848;28;20057;-88
2021/03/30 03:53:48;;;;;;;33.92;27.35;;;;;;;6.73;89.90;97399.91;5099919;28;20027;-89
2021/03/30 03:56:22;;;;;;;33.15;28.00;;;;;;;6.70;90.21;97382.56;5092006;28;20028;-88
2021/03/30 03:58:52;;;;;;;32.67;28.30;;;;;;;6.96;89.78;97423.50;5078694;28;20021;-89
2021/03/30 04:01:22;;;;;;;32.75;28.25;;;;;;;7.14;89.77;97451.03;5078933;28;20328;-89
2021/03/30 04:03:58;;;;;;;35.55;29.20;;;;;;;6.75;89.70;97387.53;5086563;28;20114;-88
2021/03/30 04:06:33;;;;;;;31.95;26.15;;;;;;;7.13;89.74;97452.19;5082952;28;20035;-89
2021/03/30 04:09:00;;;;;;;29.75;25.55;;;;;;;7.01;90.10;97437.31;5078599;28;20077;-88
2021/03/30 04:11:26;;;;;;;32.45;25.70;;;;;;;6.77;90.55;97406.78;5078446;28;20025;-89
2021/03/30 04:13:53;;;;;;;34.95;29.70;;;;;;;7.03;91.12;97451.19;5078331;28;20070;-89
2021/03/30 04:16:18;;;;;;;28.48;23.00;;;;;;;6.76;90.48;97407.94;5078333;28;20163;-89
2021/03/30 04:18:44;;;;;;;27.48;22.60;;;;;;;6.55;89.88;97363.13;5078284;28;20433;-88
2021/03/30 04:21:20;;;;;;;26.42;20.15;;;;;;;6.97;88.86;97427.72;5078237;28;20033;-88
2021/03/30 04:23:46;;;;;;;27.08;21.13;;;;;;;6.56;89.27;97367.34;5078178;28;20115;-88
2021/03/30 04:26:12;;;;;;;29.45;23.08;;;;;;;7.14;89.56;97448.34;5079961;28;20286;-88
2021/03/30 04:28:39;;;;;;;31.63;24.40;;;;;;;6.86;89.24;97403.56;5078205;28;20032;-88
2021/03/30 04:31:04;;;;;;;31.02;18.45;;;;;;;7.00;89.10;97426.91;5078066;28;20025;-89
2021/03/30 04:33:30;;;;;;;24.98;19.58;;;;;;;6.84;88.92;97400.53;5078139;28;20343;-90
2021/03/30 04:35:55;;;;;;;28.85;18.60;;;;;;;6.91;89.73;97415.84;5077832;28;20032;-88
2021/03/30 04:38:21;;;;;;;23.50;15.65;;;;;;;6.77;88.73;97379.03;5077863;28;20412;-87
2021/03/30 04:40:52;;;;;;;21.25;15.98;;;;;;;6.92;89.42;97420.09;5092223;28;20117;-88
2021/03/30 04:43:17;;;;;;;;;;;;;;;7.21;89.38;97447.47;5098684;28;20063;-87
2021/03/30 04:45:43;;;;;;;21.60;13.75;;;;;;;6.88;89.38;97406.66;5083833;28;20216;-88
2021/03/30 04:48:08;;;;;;;21.35;13.18;;;;;;;6.92;89.91;97418.13;5077748;28;20111;-89
2021/03/30 04:50:34;;;;;;;22.00;15.82;;;;;;;6.91;87.99;97422.03;5077715;28;20024;-90
2021/03/30 04:52:59;;;;;;;24.70;17.73;;;;;;;6.86;89.67;97410.91;5078510;28;20459;-88
2021/03/30 04:55:25;;;;;;;22.85;17.98;;;;;;;6.91;89.32;97415.84;5097766;28;20031;-88
2021/03/30 04:57:50;;;;;;;26.92;18.27;;;;;;;6.79;89.59;97393.63;5096865;28;20043;-88
2021/03/30 05:00:18;;;;;;;25.95;18.90;;;;;;;7.21;90.44;97461.75;5095657;28;20372;-87
2021/03/30 05:02:44;;;;;;;24.58;17.15;;;;;;;6.96;90.37;97429.66;5098629;28;20028;-88
2021/03/30 05:05:11;;;;;;;24.27;18.05;;;;;;;7.06;90.52;97444.19;5098903;28;20020;-89
2021/03/30 05:07:37;;;;;;;32.30;22.70;;;;;;;6.88;90.05;97416.69;5103725;28;20070;-88
2021/03/30 05:10:05;;;;;;;30.25;22.50;;;;;;;7.29;89.74;97463.16;5092170;28;20036;-88
2021/03/30 05:12:30;;;;;;;37.95;23.90;;;;;;;6.93;89.12;97413.53;5091515;28;20020;-89
2021/03/30 05:14:56;;;;;;;39.80;24.85;;;;;;;6.96;89.28;97408.06;5093142;28;20031;-88
2021/03/30 05:17:21;;;;;;;37.50;25.58;;;;;;;7.13;89.39;97430.56;5097480;28;20052;-88
2021/03/30 05:19:46;;;;;;;41.83;27.20;;;;;;;7.06;90.39;97430.69;5094735;28;20042;-88
2021/03/30 05:22:12;;;;;;;41.67;26.23;;;;;;;6.81;90.02;97385.13;5097229;28;20465;-89
2021/03/30 05:24:37;;;;;;;37.55;26.08;;;;;;;6.92;90.18;97406.56;5098213;28;20822;-88
2021/03/30 05:27:04;;;;;;;44.92;26.23;;;;;;;7.02;90.41;97430.72;5097177;28;20035;-89
2021/03/30 05:29:29;;;;;;;41.20;25.98;;;;;;;7.29;90.59;97460.44;5097044;28;20034;-88
2021/03/30 05:31:55;;;;;;;43.60;27.25;;;;;;;6.83;90.50;97401.69;5097086;28;20036;-88
2021/03/30 05:34:22;;;;;;;42.75;25.98;;;;;;;7.16;90.39;97454.09;5085405;28;20341;-89
2021/03/30 05:36:47;;;;;;;44.55;27.63;;;;;;;6.91;90.88;97419.31;5095216;28;20049;-89
2021/03/30 05:39:12;;;;;;;41.65;27.50;;;;;;;7.32;90.54;97486.66;5109414;28;20027;-89
2021/03/30 05:41:39;;;;;;;39.88;26.15;;;;;;;7.35;90.75;97482.41;5117398;28;20026;-88
2021/03/30 05:44:06;;;;;;;39.63;24.35;;;;;;;7.42;89.02;97489.63;5117337;28;20070;-89
2021/03/30 05:46:32;;;;;;;41.17;25.35;;;;;;;7.15;88.68;97439.06;5118180;28;20035;-89
2021/03/30 05:48:57;;;;;;;41.53;27.33;;;;;;;7.36;89.95;97456.88;5117215;28;20365;-88
2021/03/30 05:51:24;;;;;;;40.08;26.67;;;;;;;7.10;90.17;97412.50;5097394;28;20056;-89
2021/03/30 05:53:58;;;;;;;36.55;26.02;;;;;;;7.49;90.35;97479.47;5114369;28;20153;-89
2021/03/30 05:56:26;;;;;;;35.38;26.48;;;;;;;7.51;90.68;97479.03;5117033;28;20028;-88
2021/03/30 05:58:56;;;;;;;37.58;26.13;;;;;;;7.42;90.21;97460.66;5116965;28;20023;-90
2021/03/30 06:01:24;;;;;;;35.10;24.93;;;;;;;7.61;89.16;97476.16;5118210;28;20027;-90
2021/03/30 06:03:53;;;;;;;34.35;24.63;;;;;;;7.05;89.08;97389.41;5115761;28;20382;-90
2021/03/30 06:06:19;;;;;;;31.95;23.13;;;;;;;7.40;89.29;97435.19;5096234;28;20415;-87
2021/03/30 06:08:44;;;;;;;31.05;23.45;;;;;;;7.25;89.15;97394.13;5096304;28;20110;-89
2021/03/30 06:11:11;;;;;;;40.25;27.60;;;;;;;7.76;89.66;97479.41;5097765;28;20064;-89
2021/03/30 06:13:56;;;;;;;62.63;42.85;;;;;;;7.83;89.63;97481.25;5081218;28;20426;-89
2021/03/30 06:16:36;;;;;;;56.85;36.95;;;;;;;7.59;89.85;97451.50;5075861;28;20024;-88
2021/03/30 06:19:06;;;;;;;36.95;26.45;;;;;;;7.84;89.29;97480.06;5076237;28;20028;-89
2021/03/30 06:21:36;;;;;;;33.33;24.92;;;;;;;7.42;89.58;97419.34;5076169;28;20029;-89
2021/03/30 06:24:03;;;;;;;33.63;24.30;;;;;;;7.70;89.13;97448.59;5095864;28;20024;-88
2021/03/30 06:26:29;;;;;;;38.17;23.88;;;;;;;7.57;88.41;97428.75;5097125;28;20035;-87
2021/03/30 06:28:54;;;;;;;43.97;30.67;;;;;;;7.46;88.77;97411.94;5083054;28;20025;-89
2021/03/30 06:31:20;;;;;;;42.95;31.25;;;;;;;7.56;88.48;97419.88;5075864;28;20032;-88
2021/03/30 06:33:53;;;;;;;41.40;31.20;;;;;;;8.04;88.57;97485.50;5090214;28;20020;-88
2021/03/30 06:36:21;;;;;;;49.95;35.30;;;;;;;7.69;88.21;97422.00;5112635;28;20024;-88
2021/03/30 06:38:47;;;;;;;60.17;40.08;;;;;;;8.22;88.61;97485.22;5094963;28;20073;-88
2021/03/30 06:44:28;;;;;;;57.42;38.85;;;;;;;8.02;88.93;97467.00;5096874;28;20042;-89
2021/03/30 06:47:13;;;;;;;54.67;34.35;;;;;;;8.31;88.26;97493.53;5089208;28;20036;-89
2021/03/30 06:50:01;;;;;;;48.95;33.13;;;;;;;8.06;87.56;97450.69;5096046;28;20024;-88
2021/03/30 06:52:38;;;;;;;35.10;25.35;;;;;;;8.36;88.01;97496.56;5080939;28;20043;-88
2021/03/30 06:55:09;;;;;;;29.73;22.45;;;;;;;8.47;88.42;97493.66;5100329;28;20036;-88
2021/03/30 06:57:49;;;;;;;41.20;29.73;;;;;;;8.18;88.37;97450.09;5096000;28;20438;-89
2021/03/30 07:00:24;;;;;;;44.60;29.48;;;;;;;8.47;87.75;97495.59;5075626;28;20024;-90
2021/03/30 07:02:52;;;;;;;29.65;22.75;;;;;;;8.19;87.54;97462.44;5075781;28;20413;-89
2021/03/30 07:05:21;;;;;;;28.58;21.83;;;;;;;8.53;87.49;97512.91;5087260;28;20316;-88
2021/03/30 07:07:51;;;;;;;26.40;22.23;;;;;;;8.07;87.91;97441.41;5095890;28;20031;-88
2021/03/30 07:10:17;;;;;;;23.95;20.40;;;;;;;8.12;86.99;97441.69;5095838;28;20024;-88
2021/03/30 07:12:45;;;;;;;26.20;19.40;;;;;;;8.35;86.66;97467.94;5093221;28;20036;-89
2021/03/30 07:15:11;;;;;;;28.95;21.95;;;;;;;8.23;87.17;97435.31;5089908;28;20021;-88
2021/03/30 07:17:41;;;;;;;25.25;18.60;;;;;;;8.65;86.51;97485.94;5075584;28;20434;-88
2021/03/30 07:20:07;;;;;;;23.70;17.52;;;;;;;8.48;88.08;97465.41;5086027;28;20044;-89
2021/03/30 07:22:37;;;;;;;22.20;16.60;;;;;;;8.60;87.97;97464.00;5097246;28;20426;-88
2021/03/30 07:25:09;;;;;;;19.02;14.27;;;;;;;8.81;88.02;97493.38;5105425;28;20027;-87
2021/03/30 07:27:41;;;;;;;15.35;13.35;;;;;;;8.70;88.44;97473.09;5107181;28;20031;-87
2021/03/30 07:30:11;;;;;;;18.73;14.75;;;;;;;8.71;86.36;97480.81;5107771;28;20433;-89
2021/03/30 07:33:18;;;;;;;16.70;13.90;;;;;;;9.03;87.08;97517.31;5119882;28;20038;-88
2021/03/30 07:35:44;;;;;;;20.58;15.73;;;;;;;8.96;85.78;97493.84;5079043;27;20050;-88
2021/03/30 07:38:18;;;;;;;20.77;16.70;;;;;;;9.06;84.69;97492.09;5108905;28;20024;-90
2021/03/30 07:40:43;;;;;;;24.45;19.27;;;;;;;9.36;85.71;97505.34;5108620;28;20346;-89
2021/03/30 07:43:28;;;;;;;20.17;15.10;;;;;;;8.99;84.92;97451.59;5099219;28;20024;-88
2021/03/30 07:45:59;;;;;;;14.27;12.45;;;;;;;9.01;85.04;97470.91;5099015;28;20028;-88
2021/03/30 07:48:27;;;;;;;16.92;14.10;;;;;;;9.27;85.71;97483.50;5100474;28;20407;-88
2021/03/30 07:51:04;;;;;;;18.63;15.18;;;;;;;9.57;86.91;97504.09;5104325;28;20420;-89
2021/03/30 07:53:43;;;;;;;17.45;14.15;;;;;;;9.71;84.33;97513.88;5103513;28;20028;-89
2021/03/30 07:56:32;;;;;;;21.17;17.20;;;;;;;9.53;84.29;97459.25;5092983;28;20455;-88
2021/03/30 07:58:59;;;;;;;21.80;15.75;;;;;;;9.60;84.16;97467.25;5108736;28;20031;-87
2021/03/30 08:01:31;;;;;;;16.35;14.15;;;;;;;9.48;82.77;97467.91;5110962;28;20039;-89
2021/03/30 08:07:44;;;;;;;17.27;14.95;;;;;;;9.99;82.45;97509.69;5083262;28;20039;-89
2021/03/30 08:10:25;;;;;;;16.33;14.23;;;;;;;9.78;83.31;97462.13;5118973;28;20035;-88
2021/03/30 08:13:28;;;;;;;16.45;13.95;;;;;;;10.28;82.52;97514.41;5119099;28;20016;-88
2021/03/30 08:16:00;;;;;;;14.68;12.73;;;;;;;10.19;81.38;97483.19;5097004;28;20032;-89
2021/03/30 08:18:37;;;;;;;17.25;13.55;;;;;;;9.89;80.94;97430.06;5098858;28;20116;-88
2021/03/30 08:21:08;;;;;;;16.95;13.70;;;;;;;10.25;82.42;97474.56;5099091;28;20111;-89
2021/03/30 08:23:52;;;;;;;;;;;;;;;10.57;81.06;97506.28;5116334;28;20023;-88
2021/03/30 08:26:30;;;;;;;16.23;12.80;;;;;;;10.74;81.00;97503.06;5118939;28;19908;-88
2021/03/30 08:29:00;;;;;;;15.30;13.52;;;;;;;10.84;81.23;97506.69;5118667;28;20088;-88
2021/03/30 08:31:35;;;;;;;18.08;13.55;;;;;;;10.66;80.45;97466.44;5114441;28;20016;-89
2021/03/30 08:34:13;;;;;;;16.15;12.70;;;;;;;10.66;80.45;97466.44;5097150;28;20032;-87
2021/03/30 08:36:44;;;;;;;17.50;13.75;;;;;;;11.22;80.79;97509.47;5098027;28;20024;-88
2021/03/30 08:39:29;;;;;;;18.27;12.75;;;;;;;11.30;100.00;68426.72;5095027;28;20024;-88
2021/03/30 08:42:01;;;;;;;16.38;13.00;;;;;;;11.30;79.35;97512.75;5113723;28;20031;-89
2021/03/30 08:44:56;;;;;;;19.13;14.07;;;;;;;11.30;79.35;97512.75;5081064;28;20042;-88
2021/03/30 08:47:40;;;;;;;20.35;15.35;;;;;;;11.30;79.35;97512.75;5104924;28;20039;-88
2021/03/30 08:50:15;;;;;;;18.52;14.52;;;;;;;-145.61;100.00;68426.72;5093487;28;20028;-89
2021/03/30 08:52:40;;;;;;;18.98;15.63;;;;;;;11.30;79.35;97512.75;5099209;28;20059;-89
2021/03/30 08:55:08;;;;;;;19.25;15.73;;;;;;;11.30;79.35;97512.75;5101542;28;20038;-88
2021/03/30 08:57:36;;;;;;;18.83;14.40;;;;;;;11.30;79.35;97512.75;5097817;28;20058;-89
2021/03/30 09:00:14;;;;;;;17.17;13.80;;;;;;;11.30;79.35;97512.75;5101635;28;20435;-89
2021/03/30 09:02:39;;;;;;;18.83;14.13;;;;;;;11.30;79.35;97512.75;5103298;28;20472;-88
2021/03/30 09:05:23;;;;;;;19.77;13.65;;;;;;;11.30;79.35;97512.75;5107739;28;20016;-88
2021/03/30 09:07:49;;;;;;;17.92;13.40;;;;;;;12.17;78.64;97476.19;5093041;28;20036;-89
2021/03/30 09:10:16;;;;;;;16.00;12.57;;;;;;;12.52;78.37;97504.91;5113391;28;20031;-89
2021/03/30 09:12:44;;;;;;;15.60;12.02;;;;;;;12.52;78.37;97504.91;5104695;28;20315;-88
2021/03/30 09:15:12;;;;;;;16.65;13.60;;;;;;;12.52;78.37;97504.91;5117892;28;20051;-88
2021/03/30 09:18:11;;;;;;;17.33;12.63;;;;;;;12.52;78.37;97504.91;5108209;28;20062;-89
2021/03/30 09:20:37;;;;;;;16.63;12.88;;;;;;;12.52;78.37;97504.91;5054772;28;20044;-89
2021/03/30 09:23:24;;;;;;;16.52;12.85;;;;;;;12.52;78.37;97504.91;5098205;28;20093;-90
2021/03/30 09:25:56;;;;;;;16.63;12.80;;;;;;;12.52;78.37;97504.91;5089153;28;20796;-89
2021/03/30 09:28:21;;;;;;;15.52;13.25;;;;;;;12.52;78.37;97504.91;5097375;28;20035;-88
2021/03/30 09:30:48;;;;;;;15.45;12.13;;;;;;;-145.61;100.00;68426.72;5083588;28;20020;-88
2021/03/30 09:33:14;;;;;;;15.32;12.40;;;;;;;12.52;78.37;97504.91;5091075;28;20044;-87
2021/03/30 09:35:40;;;;;;;17.15;12.25;;;;;;;12.52;78.37;97504.91;5107035;28;20027;-87
2021/03/30 09:38:06;;;;;;;20.90;15.10;;;;;;;13.12;72.88;97438.47;5104831;28;20093;-87
2021/03/30 09:40:38;;;;;;;15.38;12.63;;;;;;;13.12;72.88;97438.47;5093545;28;20288;-87
2021/03/30 09:43:09;;;;;;;18.15;12.93;;;;;;;13.55;71.65;97461.38;5099549;28;20031;-86
2021/03/30 09:45:35;;;;;;;16.13;12.35;;;;;;;13.65;71.02;97471.13;5091412;28;20020;-87
2021/03/30 09:48:06;;;;;;;17.17;12.95;;;;;;;13.67;70.46;97471.41;5095649;28;20079;-87
2021/03/30 09:50:32;;;;;;;18.15;12.93;;;;;;;13.82;70.30;97474.34;5088000;28;20311;-87
2021/03/30 09:53:03;;;;;;;17.15;13.35;;;;;;;13.99;70.12;97497.41;5092097;28;20047;-88
2021/03/30 09:55:34;;;;;;;15.68;11.70;;;;;;;13.97;69.11;97475.28;5096134;28;20374;-87
2021/03/30 09:58:02;;;;;;;16.35;11.95;;;;;;;14.25;68.84;97497.16;5097318;28;20019;-88
2021/03/30 10:00:30;;;;;;;16.60;11.82;;;;;;;14.36;68.13;97491.97;5093636;28;20028;-88
2021/03/30 10:03:24;;;;;;;21.65;12.45;;;;;;;14.29;66.98;97495.03;5099179;28;20164;-87
2021/03/30 10:05:50;;;;;;;16.35;11.23;;;;;;;14.09;67.06;97452.50;5097313;28;20036;-89
2021/03/30 10:08:21;;;;;;;17.05;12.27;;;;;;;14.39;68.26;97485.63;5104889;28;20065;-91
2021/03/30 10:10:53;;;;;;;17.88;11.30;;;;;;;14.11;66.91;97432.94;5095848;28;20035;-90
2021/03/30 10:13:36;;;;;;;24.00;12.15;;;;;;;14.53;65.97;97470.59;5091543;28;20027;-89
2021/03/30 10:16:10;;;;;;;34.22;13.90;;;;;;;14.63;65.36;97480.31;5106745;28;20155;-90
2021/03/30 10:18:37;;;;;;;35.65;14.10;;;;;;;14.50;65.28;97441.47;5100868;28;20331;-90
2021/03/30 10:21:10;;;;;;;20.33;12.43;;;;;;;14.83;65.54;97472.38;5096325;28;20434;-89
2021/03/30 10:23:49;;;;;;;17.10;11.10;;;;;;;14.64;64.93;97430.63;5096458;28;20032;-89
2021/03/30 10:26:16;;;;;;;16.90;11.38;;;;;;;14.76;64.60;97436.41;5096423;28;20085;-90
2021/03/30 10:28:57;;;;;;;20.27;11.98;;;;;;;15.03;64.04;97468.38;5096420;28;20023;-89
2021/03/30 10:31:44;;;;;;;19.33;10.95;;;;;;;14.99;63.98;97465.06;5095123;28;20079;-90
2021/03/30 10:34:28;;;;;;;24.33;11.63;;;;;;;14.58;62.73;97428.97;5077008;28;20025;-90
2021/03/30 10:36:56;;;;;;;19.00;11.20;;;;;;;14.78;64.79;97440.19;5100601;28;20043;-88
2021/03/30 10:39:42;;;;;;;12.15;10.50;;;;;;;14.67;63.94;97437.94;5094143;28;20776;-88
2021/03/30 10:42:19;;;;;;;17.27;11.45;;;;;;;14.51;62.50;97421.09;5096594;28;20020;-88
2021/03/30 10:44:46;;;;;;;14.50;10.45;;;;;;;14.44;63.05;97394.81;5105589;28;20031;-88
2021/03/30 10:47:12;;;;;;;18.55;10.57;;;;;;;14.91;62.74;97465.38;5090772;28;20028;-88
2021/03/30 10:49:37;;;;;;;15.45;9.90;;;;;;;14.74;63.00;97422.41;5089822;28;20936;-88
2021/03/30 10:52:04;;;;;;;17.10;10.20;;;;;;;15.03;62.85;97443.78;5094253;28;20112;-88
2021/03/30 10:54:30;;;;;;;15.30;9.75;;;;;;;14.66;62.23;97405.59;5096062;28;20057;-90
2021/03/30 10:56:55;;;;;;;13.57;8.95;;;;;;;14.78;61.86;97412.84;5099272;28;20112;-89
2021/03/30 10:59:20;;;;;;;15.75;8.98;;;;;;;14.89;61.24;97409.63;5093063;28;20032;-89
2021/03/30 11:01:46;;;;;;;15.50;9.18;;;;;;;14.73;60.61;97377.91;5089834;28;20153;-90
2021/03/30 11:04:11;;;;;;;13.20;9.10;;;;;;;15.15;60.59;97442.81;5096592;28;20028;-89
2021/03/30 11:06:37;;;;;;;13.05;8.80;;;;;;;14.96;59.38;97427.66;5099936;28;20016;-89
2021/03/30 11:09:03;;;;;;;16.98;9.20;;;;;;;15.09;60.35;97422.78;5098907;28;20024;-89
2021/03/30 11:11:29;;;;;;;15.52;9.50;;;;;;;15.03;59.67;97400.00;5089513;28;20090;-89
2021/03/30 11:13:55;;;;;;;14.38;8.65;;;;;;;15.46;59.82;97459.69;5093061;28;20794;-88
2021/03/30 11:16:20;;;;;;;19.50;9.43;;;;;;;15.18;61.08;97398.88;5099405;28;20026;-88
2021/03/30 11:18:46;;;;;;;26.92;9.77;;;;;;;15.36;60.68;97421.88;5099640;28;20137;-89
2021/03/30 11:21:11;;;;;;;26.27;10.43;;;;;;;15.30;60.96;97391.66;5084398;28;20032;-89
2021/03/30 11:23:38;;;;;;;14.32;9.55;;;;;;;15.29;57.89;97395.63;5088712;28;20024;-88
2021/03/30 11:26:04;;;;;;;14.52;9.20;;;;;;;15.06;57.70;97339.63;5092536;28;20033;-89
2021/03/30 11:28:38;;;;;;;19.20;9.73;;;;;;;15.53;58.63;97392.13;5096578;28;20028;-89
2021/03/30 11:31:11;;;;;;;16.48;9.68;;;;;;;15.55;58.81;97384.22;5109556;28;20032;-89
2021/03/30 11:33:44;;;;;;;17.05;9.63;;;;;;;15.77;57.64;97387.44;5099128;28;20353;-89
2021/03/30 11:36:13;;;;;;;15.88;9.70;;;;;;;15.62;58.24;97354.50;5099066;28;20039;-88
2021/03/30 11:38:39;;;;;;;17.58;9.68;;;;;;;15.99;58.29;97400.84;5097577;28;20038;-88
2021/03/30 11:41:04;;;;;;;19.67;9.95;;;;;;;15.90;58.12;97371.50;5103461;28;20024;-87
2021/03/30 11:43:30;;;;;;;20.75;12.50;;;;;;;16.05;58.29;97389.97;5104171;28;20351;-87
2021/03/30 11:45:55;;;;;;;25.08;14.38;;;;;;;16.22;56.97;97400.00;5097437;28;20020;-87
2021/03/30 11:48:21;;;;;;;17.60;10.32;;;;;;;16.16;57.56;97393.69;5092157;28;20027;-87